Time;durP1;ratioP1;P1;durP2;ratioP2;P2;SDS_P1;SDS_P2;PMS_P1;PMS_P2;Temp;Humidity;BMP_temperature;BMP_pressure;BME280_temperature;BME280_humidity;BME280_pressure;Samples;Min_cycle;Max_cycle;Signal;HPM_P1;HPM_P2
2022/09/19 00:00:33;;;;;;;1.27;1.17;;;;;;;10.30;49.84;93900.16;5033977;28;20567;-79
2022/09/19 00:02:59;;;;;;;2.08;1.00;;;;;;;10.44;49.71;93929.31;5029944;28;20021;-79
2022/09/19 00:05:24;;;;;;;1.55;1.10;;;;;;;10.33;50.18;93904.84;5026765;28;20029;-79
2022/09/19 00:07:50;;;;;;;0.95;0.93;;;;;;;10.37;49.89;93915.69;5028743;28;20055;-79
2022/09/19 00:10:15;;;;;;;1.10;1.10;;;;;;;10.45;49.94;93930.88;5028714;28;20491;-80
2022/09/19 00:12:41;;;;;;;0.98;0.90;;;;;;;10.32;49.76;93897.94;5030302;28;20029;-79
2022/09/19 00:15:07;;;;;;;1.23;1.00;;;;;;;10.38;49.72;93907.38;5027287;28;20504;-79
2022/09/19 00:17:33;;;;;;;1.13;1.02;;;;;;;10.41;49.68;93914.75;5058504;28;20124;-79
2022/09/19 00:19:58;;;;;;;1.30;1.10;;;;;;;10.42;49.68;93899.56;5029323;28;20036;-80
2022/09/19 00:22:23;;;;;;;2.15;1.00;;;;;;;10.36;49.59;93895.47;5027827;28;20060;-79
2022/09/19 00:24:49;;;;;;;1.40;1.10;;;;;;;10.11;49.53;93871.16;5028242;28;20120;-79
2022/09/19 00:27:19;;;;;;;1.58;1.20;;;;;;;10.32;49.79;93897.94;5027716;28;20772;-80
2022/09/19 00:29:45;;;;;;;1.02;1.00;;;;;;;10.13;49.62;93868.97;5027514;28;20034;-80
2022/09/19 00:32:12;;;;;;;1.40;1.20;;;;;;;10.31;49.95;93901.72;5026342;28;20055;-80
2022/09/19 00:34:42;;;;;;;1.30;1.20;;;;;;;10.31;50.16;93902.50;5029213;28;20039;-80
2022/09/19 00:37:08;;;;;;;1.20;1.10;;;;;;;10.09;49.81;93862.72;5026558;28;20036;-78
2022/09/19 00:39:33;;;;;;;5.07;1.58;;;;;;;10.27;49.34;93906.06;5029006;28;20020;-79
2022/09/19 00:41:59;;;;;;;1.88;0.95;;;;;;;10.22;49.87;93904.31;5027832;28;20028;-79
2022/09/19 00:44:25;;;;;;;1.08;0.90;;;;;;;10.21;49.36;93899.34;5029479;28;20103;-80
2022/09/19 00:46:54;;;;;;;1.63;1.27;;;;;;;10.22;50.17;93909.66;5026565;28;20033;-78
2022/09/19 00:49:21;;;;;;;1.58;1.08;;;;;;;9.96;50.03;93866.28;5028898;28;20025;-80
2022/09/19 00:51:53;;;;;;;1.08;0.98;;;;;;;9.88;50.00;93867.00;5026844;28;20572;-79
2022/09/19 00:54:34;;;;;;;1.55;1.30;;;;;;;10.12;50.00;93915.22;5027470;28;20063;-79
2022/09/19 00:57:03;;;;;;;1.20;1.10;;;;;;;9.98;49.84;93898.63;5033002;28;20044;-79
2022/09/19 00:59:33;;;;;;;2.22;1.00;;;;;;;9.96;49.78;93892.84;5027505;28;20025;-80
2022/09/19 01:02:04;;;;;;;1.88;1.13;;;;;;;10.00;49.98;93901.75;5029961;28;20112;-79
2022/09/19 01:04:35;;;;;;;0.93;0.85;;;;;;;9.94;49.99;93904.84;5026528;28;20026;-80
2022/09/19 01:07:10;;;;;;;2.13;1.00;;;;;;;9.94;50.62;93895.00;5028326;28;20064;-79
2022/09/19 01:09:57;;;;;;;1.40;1.10;;;;;;;9.69;50.33;93863.81;5028178;28;20021;-79
2022/09/19 01:12:53;;;;;;;1.05;0.98;;;;;;;9.87;50.42;93897.34;5028529;28;20520;-79
2022/09/19 01:15:53;;;;;;;1.80;1.10;;;;;;;9.81;50.63;93914.50;5027467;28;20039;-79
2022/09/19 01:18:23;;;;;;;1.70;0.88;;;;;;;9.81;50.78;93906.53;5027892;28;20018;-80
2022/09/19 01:24:03;;;;;;;1.40;1.08;;;;;;;9.57;51.00;93866.25;5026619;28;20080;-79
2022/09/19 01:26:44;;;;;;;1.33;1.17;;;;;;;9.80;50.83;93894.31;5059125;28;20028;-79
2022/09/19 01:29:20;;;;;;;2.10;1.40;;;;;;;9.75;50.93;93897.09;5032083;28;20033;-81
2022/09/19 01:31:52;;;;;;;1.38;1.27;;;;;;;9.73;50.88;93904.63;5026058;28;20083;-79
2022/09/19 01:34:23;;;;;;;3.13;1.10;;;;;;;9.62;50.73;93877.53;5029127;28;20854;-79
2022/09/19 01:37:03;;;;;;;1.30;1.20;;;;;;;9.67;50.85;93881.94;5025811;28;20512;-80
2022/09/19 01:39:31;;;;;;;1.40;1.25;;;;;;;9.59;50.90;93859.53;5026560;28;20025;-79
2022/09/19 01:42:00;;;;;;;1.75;1.13;;;;;;;9.79;50.78;93890.88;5027188;28;20016;-80
2022/09/19 01:44:27;;;;;;;1.90;1.20;;;;;;;9.70;50.37;93862.72;5026932;28;20025;-79
2022/09/19 01:47:08;;;;;;;1.30;0.95;;;;;;;9.75;50.30;93879.31;5025679;28;20397;-79
2022/09/19 01:49:58;;;;;;;6.95;1.50;;;;;;;9.74;50.49;93876.94;5028415;28;20033;-79
2022/09/19 01:52:52;;;;;;;1.45;1.20;;;;;;;9.70;50.79;93883.97;5028501;28;20021;-79
2022/09/19 01:55:17;;;;;;;1.00;0.90;;;;;;;9.68;50.73;93886.91;5027886;28;20027;-79
2022/09/19 01:57:55;;;;;;;1.33;1.23;;;;;;;9.36;50.53;93845.53;5026474;28;20030;-80
2022/09/19 02:00:23;;;;;;;1.13;1.02;;;;;;;9.29;50.54;93849.72;5029345;28;20021;-79
2022/09/19 02:03:14;;;;;;;4.63;1.17;;;;;;;9.42;50.61;93870.06;5025679;28;20114;-79
2022/09/19 02:05:41;;;;;;;2.33;1.55;;;;;;;9.48;51.08;93886.66;5028671;28;20031;-79
2022/09/19 02:08:16;;;;;;;1.63;1.52;;;;;;;9.48;51.11;93881.34;5026708;28;20077;-78
2022/09/19 02:11:00;;;;;;;2.15;1.70;;;;;;;9.29;51.19;93863.75;5026140;28;20083;-81
2022/09/19 02:13:32;;;;;;;2.20;2.00;;;;;;;9.43;51.68;93876.97;5027549;28;20448;-80
2022/09/19 02:16:06;;;;;;;2.85;1.95;;;;;;;9.41;51.53;93879.91;5027110;28;20442;-79
2022/09/19 02:18:39;;;;;;;2.20;1.88;;;;;;;8.98;51.67;93817.81;5036946;28;20040;-79
2022/09/19 02:21:10;;;;;;;1.85;1.58;;;;;;;9.37;52.03;93873.66;5027458;28;20397;-79
2022/09/19 02:23:47;;;;;;;1.77;1.50;;;;;;;9.08;51.54;93827.38;5026916;28;20026;-79
2022/09/19 02:26:16;;;;;;;1.92;1.38;;;;;;;9.35;51.24;93870.50;5027559;28;20056;-80
2022/09/19 02:28:44;;;;;;;2.92;1.50;;;;;;;9.21;51.59;93837.94;5027394;28;20028;-79
2022/09/19 02:31:11;;;;;;;2.10;1.38;;;;;;;9.21;51.73;93853.88;5027990;28;20029;-79
2022/09/19 02:33:37;;;;;;;1.17;1.13;;;;;;;8.98;51.67;93815.16;5027763;28;20503;-79
2022/09/19 02:36:02;;;;;;;2.65;1.65;;;;;;;9.26;51.59;93860.91;5034506;28;20056;-79
2022/09/19 02:38:49;;;;;;;5.13;2.42;;;;;;;9.33;51.13;93867.38;5025968;28;20179;-80
2022/09/19 02:41:52;;;;;;;2.80;1.20;;;;;;;9.28;51.17;93862.19;5024400;28;20029;-79
2022/09/19 02:44:52;;;;;;;1.67;1.42;;;;;;;9.22;51.14;93855.44;5006820;28;20042;-80
2022/09/19 02:47:27;;;;;;;1.70;1.02;;;;;;;9.18;51.82;93857.13;5025334;28;20072;-78
2022/09/19 02:49:59;;;;;;;;;;;;;;;9.20;51.99;93852.28;5027092;28;20044;-80
2022/09/19 02:52:31;;;;;;;1.23;1.10;;;;;;;9.14;51.58;93855.41;5030412;28;20031;-78
2022/09/19 02:55:12;;;;;;;1.80;1.33;;;;;;;9.09;51.56;93853.63;5029364;28;20087;-79
2022/09/19 02:57:41;;;;;;;1.30;1.20;;;;;;;8.97;51.31;93840.09;5059012;28;20021;-79
2022/09/19 03:00:07;;;;;;;1.85;1.17;;;;;;;9.13;51.38;93869.75;5029304;28;20059;-79
2022/09/19 03:02:37;;;;;;;1.85;1.33;;;;;;;8.91;51.35;93843.94;5030047;28;20114;-79
2022/09/19 03:05:08;;;;;;;3.17;1.30;;;;;;;8.99;51.25;93856.50;5026333;28;20082;-79
2022/09/19 03:07:38;;;;;;;2.80;1.75;;;;;;;8.81;51.26;93833.56;5028196;28;20025;-80
2022/09/19 03:10:10;;;;;;;1.98;1.50;;;;;;;8.87;51.45;93848.28;5028608;28;20079;-79
2022/09/19 03:12:50;;;;;;;3.40;1.55;;;;;;;8.83;51.77;93836.72;5027485;28;20655;-79
2022/09/19 03:15:20;;;;;;;3.65;1.60;;;;;;;8.96;52.19;93867.69;5044920;28;20033;-79
2022/09/19 03:17:49;;;;;;;1.98;1.88;;;;;;;9.02;52.11;93877.13;5030954;28;20075;-79
2022/09/19 03:20:16;;;;;;;3.08;1.90;;;;;;;8.83;51.62;93847.34;5029760;28;20025;-79
2022/09/19 03:22:41;;;;;;;4.72;2.80;;;;;;;8.86;52.06;93849.38;5036265;28;20025;-80
2022/09/19 03:25:09;;;;;;;3.00;2.33;;;;;;;8.88;51.71;93865.78;5030521;28;20029;-78
2022/09/19 03:27:37;;;;;;;5.22;2.50;;;;;;;8.86;51.69;93838.75;5027586;28;20075;-79
2022/09/19 03:30:13;;;;;;;2.55;1.80;;;;;;;8.92;51.65;93850.84;5028578;28;20025;-79
2022/09/19 03:32:41;;;;;;;1.50;1.40;;;;;;;8.95;51.66;93852.91;5030418;28;20033;-79
2022/09/19 03:35:09;;;;;;;2.58;1.77;;;;;;;9.03;51.07;93874.19;5029228;28;20377;-79
2022/09/19 03:37:34;;;;;;;1.55;1.45;;;;;;;8.69;51.66;93812.91;5027568;28;20297;-79
2022/09/19 03:40:01;;;;;;;1.38;1.27;;;;;;;8.96;51.43;93857.09;5033128;28;20094;-80
2022/09/19 03:42:27;;;;;;;1.92;1.50;;;;;;;8.87;51.73;93827.06;5027486;28;20025;-79
2022/09/19 03:44:53;;;;;;;1.88;1.38;;;;;;;9.08;51.95;93849.38;5029954;28;20112;-78
2022/09/19 03:47:21;;;;;;;1.70;1.20;;;;;;;8.73;51.36;93794.53;5028768;28;20021;-79
2022/09/19 03:49:49;;;;;;;1.63;1.50;;;;;;;8.79;51.66;93803.94;5028541;28;20087;-78
2022/09/19 03:52:16;;;;;;;2.95;1.60;;;;;;;8.70;51.85;93795.16;5029926;28;20411;-80
2022/09/19 03:54:41;;;;;;;1.23;1.13;;;;;;;8.97;51.71;93838.22;5028876;28;20462;-79
2022/09/19 03:57:07;;;;;;;1.52;1.42;;;;;;;8.91;51.94;93828.81;5029809;28;20079;-80
2022/09/19 03:59:33;;;;;;;3.47;1.70;;;;;;;8.74;51.75;93807.50;5028968;28;20024;-79
2022/09/19 04:01:58;;;;;;;1.80;1.70;;;;;;;8.95;51.79;93839.63;5033272;28;20044;-79
2022/09/19 04:04:23;;;;;;;2.15;1.50;;;;;;;8.80;51.58;93827.53;5026668;28;20043;-79
2022/09/19 04:06:49;;;;;;;3.08;1.60;;;;;;;8.76;51.86;93821.22;5027757;28;20036;-79
2022/09/19 04:09:14;;;;;;;2.45;2.00;;;;;;;8.77;52.04;93817.50;5027497;28;20028;-79
2022/09/19 04:11:41;;;;;;;3.30;1.75;;;;;;;8.56;52.04;93785.34;5030260;28;20324;-79
2022/09/19 04:14:06;;;;;;;2.80;1.98;;;;;;;8.72;52.05;93798.25;5026192;28;20048;-79
2022/09/19 04:16:31;;;;;;;2.08;1.45;;;;;;;8.87;51.86;93821.78;5036099;28;20115;-79
2022/09/19 04:18:57;;;;;;;2.00;1.50;;;;;;;8.94;51.96;93838.84;5027198;28;20025;-80
2022/09/19 04:21:23;;;;;;;3.05;1.67;;;;;;;8.75;52.18;93810.94;5028814;28;20116;-80
2022/09/19 04:23:48;;;;;;;4.72;1.67;;;;;;;8.69;51.82;93793.56;5033084;28;20057;-79
2022/09/19 04:26:14;;;;;;;3.33;1.60;;;;;;;8.96;51.49;93835.88;5027740;28;20036;-79
2022/09/19 04:28:40;;;;;;;1.67;1.58;;;;;;;8.96;51.83;93841.19;5035445;28;20614;-80
2022/09/19 04:31:09;;;;;;;1.65;1.50;;;;;;;8.65;51.78;93784.66;5029620;28;20040;-80
2022/09/19 04:33:36;;;;;;;3.22;1.50;;;;;;;8.97;51.77;93835.59;5027922;28;20507;-79
2022/09/19 04:36:03;;;;;;;3.95;1.80;;;;;;;8.93;51.83;93820.56;5030333;28;20060;-80
2022/09/19 04:38:30;;;;;;;1.88;1.60;;;;;;;9.00;52.18;93831.53;5027976;28;20021;-79
2022/09/19 04:40:57;;;;;;;1.90;1.70;;;;;;;8.85;52.13;93803.50;5029929;28;20037;-80
2022/09/19 04:43:24;;;;;;;2.00;1.80;;;;;;;9.03;52.20;93821.13;5027458;28;20128;-79
2022/09/19 04:45:50;;;;;;;4.32;1.95;;;;;;;9.13;51.95;93820.13;5028564;28;20044;-79
2022/09/19 04:48:19;;;;;;;3.25;2.40;;;;;;;9.21;52.19;93832.63;5033809;28;20472;-79
2022/09/19 04:50:50;;;;;;;2.20;1.73;;;;;;;9.27;52.69;93831.44;5028419;28;20025;-79
2022/09/19 04:53:23;;;;;;;2.88;1.60;;;;;;;9.34;52.11;93836.31;5056696;28;20115;-80
2022/09/19 04:55:53;;;;;;;2.53;2.13;;;;;;;9.39;52.39;93836.94;5035729;28;20493;-79
2022/09/19 04:58:19;;;;;;;6.63;2.60;;;;;;;9.24;52.14;93788.81;5029309;28;20304;-81
2022/09/19 05:00:53;;;;;;;2.53;2.00;;;;;;;9.45;52.26;93811.84;5027329;28;20025;-79
2022/09/19 05:03:20;;;;;;;2.70;2.33;;;;;;;9.38;52.38;93787.63;5025489;28;20021;-79
2022/09/19 05:05:50;;;;;;;4.45;2.35;;;;;;;9.47;51.93;93797.50;5029166;28;20025;-79
2022/09/19 05:08:25;;;;;;;2.40;2.20;;;;;;;9.51;51.58;93832.94;5026120;28;20039;-78
2022/09/19 05:10:52;;;;;;;;;;;;;;;9.56;52.28;93838.91;5027512;28;20021;-78
2022/09/19 05:13:18;;;;;;;5.03;2.83;;;;;;;9.17;52.68;93761.91;5024496;28;19913;-79
2022/09/19 05:15:44;;;;;;;3.20;2.60;;;;;;;9.76;52.51;93834.94;5029424;28;20382;-79
2022/09/19 05:18:10;;;;;;;6.68;3.42;;;;;;;9.77;52.21;93824.03;5028508;28;20033;-79
2022/09/19 05:20:36;;;;;;;4.90;3.50;;;;;;;9.77;52.31;93815.25;5027504;28;20052;-79
2022/09/19 05:23:02;;;;;;;6.90;3.00;;;;;;;9.95;52.15;93829.38;5027078;28;20556;-79
2022/09/19 05:25:30;;;;;;;3.50;2.97;;;;;;;10.09;51.94;93852.09;5025948;28;20029;-79
2022/09/19 05:27:57;;;;;;;5.28;3.13;;;;;;;9.86;50.49;93818.72;5027754;28;20083;-80
2022/09/19 05:30:26;;;;;;;4.82;2.85;;;;;;;9.98;51.31;93834.06;5025397;28;20439;-79
2022/09/19 05:32:51;;;;;;;8.73;3.70;;;;;;;10.08;51.39;93852.38;5021243;28;20036;-80
2022/09/19 05:35:18;;;;;;;4.35;3.15;;;;;;;9.81;51.90;93846.22;5023535;28;20025;-78
2022/09/19 05:37:45;;;;;;;4.80;3.33;;;;;;;9.85;51.56;93851.69;5023175;28;20017;-80
2022/09/19 05:40:11;;;;;;;5.47;4.22;;;;;;;9.88;52.36;93857.16;5022469;28;20489;-79
2022/09/19 05:42:41;;;;;;;8.02;3.60;;;;;;;9.81;51.71;93856.06;5027057;28;20040;-79
2022/09/19 05:45:11;;;;;;;4.78;3.58;;;;;;;9.95;52.49;93855.94;5024529;28;20047;-80
2022/09/19 05:47:39;;;;;;;10.27;4.43;;;;;;;10.08;52.58;93853.16;5025976;28;20020;-79
2022/09/19 05:50:09;;;;;;;5.47;4.32;;;;;;;10.19;52.25;93856.31;5025414;28;20061;-81
2022/09/19 05:55:24;;;;;;;6.03;4.25;;;;;;;10.10;52.23;93811.13;5028853;28;20735;-81
2022/09/19 05:57:59;;;;;;;8.15;4.25;;;;;;;10.11;51.73;93822.56;5027889;28;20029;-79
2022/09/19 06:00:26;;;;;;;10.20;5.05;;;;;;;10.21;51.77;93852.28;5052073;28;20732;-78
2022/09/19 06:03:00;;;;;;;7.63;4.53;;;;;;;10.28;52.23;93838.53;5025745;28;20029;-78
2022/09/19 06:05:27;;;;;;;6.80;5.38;;;;;;;10.44;52.38;93844.22;5029942;28;20036;-79
2022/09/19 06:07:57;;;;;;;6.75;4.53;;;;;;;10.43;52.10;93839.97;5052765;28;20032;-79
2022/09/19 06:10:24;;;;;;;8.55;5.38;;;;;;;10.42;52.01;93825.13;5041299;28;20588;-79
2022/09/19 06:12:52;;;;;;;5.90;4.50;;;;;;;10.37;52.26;93809.34;5024166;28;20444;-80
2022/09/19 06:15:17;;;;;;;10.02;4.32;;;;;;;10.56;51.87;93823.13;5017860;28;20029;-79
2022/09/19 06:17:45;;;;;;;6.45;3.92;;;;;;;10.62;51.32;93848.44;5028248;28;20025;-79
2022/09/19 06:20:11;;;;;;;7.57;4.57;;;;;;;10.22;50.90;93776.75;5015074;28;20235;-78
2022/09/19 06:22:37;;;;;;;8.85;4.40;;;;;;;10.59;50.76;93846.44;5053693;28;20455;-78
2022/09/19 06:25:03;;;;;;;5.82;4.10;;;;;;;10.71;50.63;93860.66;5022855;28;20064;-79
2022/09/19 06:27:28;;;;;;;4.93;4.13;;;;;;;10.88;51.02;93861.78;5014055;28;20033;-78
2022/09/19 06:29:54;;;;;;;3.95;3.55;;;;;;;10.99;50.88;93863.03;5026966;28;20025;-78
2022/09/19 06:32:20;;;;;;;5.22;4.50;;;;;;;11.02;50.28;93855.19;5038728;28;20033;-79
2022/09/19 06:34:46;;;;;;;7.50;5.13;;;;;;;10.95;50.69;93830.94;5030793;28;20554;-78
2022/09/19 06:37:12;;;;;;;4.63;4.10;;;;;;;11.29;50.58;93856.75;5027056;28;20025;-78
2022/09/19 06:39:37;;;;;;;4.93;4.45;;;;;;;11.39;50.35;93856.41;5033879;28;20487;-78
2022/09/19 06:42:03;;;;;;;7.82;5.20;;;;;;;11.33;49.91;93846.22;5027940;28;20033;-78
2022/09/19 06:44:30;;;;;;;7.43;4.47;;;;;;;11.15;50.66;93792.22;5057425;28;20286;-78
2022/09/19 06:46:55;;;;;;;6.63;4.70;;;;;;;11.56;50.49;93839.63;5025766;28;20446;-78
2022/09/19 06:49:21;;;;;;;6.95;4.43;;;;;;;11.55;49.76;93838.06;5023921;28;20029;-79
2022/09/19 06:51:46;;;;;;;7.03;4.72;;;;;;;11.74;49.81;93857.13;5025743;28;20516;-80
2022/09/19 06:54:12;;;;;;;5.68;4.43;;;;;;;11.76;49.02;93843.47;5023312;28;20484;-79
2022/09/19 06:56:37;;;;;;;5.93;4.38;;;;;;;11.77;47.93;93850.38;5028961;28;20149;-78
2022/09/19 06:59:03;;;;;;;6.45;4.10;;;;;;;11.79;48.11;93843.63;5024650;28;20630;-78
2022/09/19 07:01:29;;;;;;;5.85;4.13;;;;;;;11.47;47.65;93782.91;5031243;28;20025;-77
2022/09/19 07:03:54;;;;;;;15.23;4.22;;;;;;;11.89;47.96;93853.13;5024886;28;20099;-78
2022/09/19 07:06:20;;;;;;;6.82;3.90;;;;;;;11.95;47.90;93842.00;5031892;28;20021;-78
2022/09/19 07:08:45;;;;;;;5.07;3.65;;;;;;;12.02;47.71;93841.50;5045604;28;20032;-80
2022/09/19 07:11:11;;;;;;;4.90;3.45;;;;;;;11.91;46.60;93829.63;5029383;28;20033;-78
2022/09/19 07:13:36;;;;;;;5.45;2.72;;;;;;;12.02;46.90;93825.50;5022078;28;20132;-78
2022/09/19 07:16:03;;;;;;;4.63;3.15;;;;;;;12.00;46.66;93823.16;5037067;28;20513;-79
2022/09/19 07:18:29;;;;;;;5.00;2.92;;;;;;;12.15;46.48;93834.38;5027895;28;20040;-79
2022/09/19 07:20:58;;;;;;;7.07;3.10;;;;;;;12.23;46.96;93841.53;5028205;28;20132;-78
2022/09/19 07:23:23;;;;;;;7.68;2.78;;;;;;;12.15;47.55;93821.03;5028961;28;20029;-79
2022/09/19 07:25:48;;;;;;;4.93;2.63;;;;;;;12.03;46.18;93809.19;5026811;28;20793;-78
2022/09/19 07:28:16;;;;;;;5.88;2.90;;;;;;;12.16;46.46;93810.06;5028791;28;20029;-79
2022/09/19 07:30:44;;;;;;;4.05;2.38;;;;;;;12.43;47.10;93836.25;5029215;28;20021;-78
2022/09/19 07:33:12;;;;;;;4.50;2.95;;;;;;;12.29;46.85;93793.03;5029240;28;20017;-78
2022/09/19 07:35:41;;;;;;;6.80;2.45;;;;;;;12.54;46.32;93819.84;5058983;28;20029;-79
2022/09/19 07:38:09;;;;;;;3.83;2.33;;;;;;;12.68;45.59;93831.88;5027960;28;20029;-79
2022/09/19 07:40:34;;;;;;;9.25;2.13;;;;;;;12.40;45.33;93788.88;5059837;28;20025;-78
2022/09/19 07:43:02;;;;;;;5.40;2.25;;;;;;;12.61;45.80;93823.63;5060151;28;20041;-79
2022/09/19 07:45:32;;;;;;;7.90;2.05;;;;;;;12.64;44.99;93822.97;5029898;28;20025;-78
2022/09/19 07:47:57;;;;;;;4.05;1.95;;;;;;;12.57;45.83;93811.97;5028806;28;20116;-78
2022/09/19 07:50:23;;;;;;;3.45;2.10;;;;;;;12.74;45.60;93822.56;5025132;28;20047;-79
2022/09/19 07:52:58;;;;;;;3.33;2.42;;;;;;;12.79;44.92;93821.59;5056972;28;20029;-78
2022/09/19 07:55:24;;;;;;;2.42;2.05;;;;;;;12.78;45.03;93815.47;5059725;28;20112;-79
2022/09/19 07:57:56;;;;;;;2.75;1.90;;;;;;;12.50;44.77;93761.03;5028078;28;20032;-78
2022/09/19 08:00:25;;;;;;;4.53;2.10;;;;;;;12.87;44.39;93818.84;5030260;28;20036;-77
2022/09/19 08:03:01;;;;;;;2.97;2.30;;;;;;;12.95;44.57;93817.22;5028664;28;20025;-78
2022/09/19 08:05:28;;;;;;;5.80;2.88;;;;;;;12.94;44.40;93801.53;5029445;28;20028;-79
2022/09/19 08:07:55;;;;;;;4.57;2.00;;;;;;;13.00;44.57;93795.66;5029269;28;20039;-79
2022/09/19 08:10:21;;;;;;;2.70;1.90;;;;;;;13.04;43.59;93787.78;5043524;28;20052;-79
2022/09/19 08:12:48;;;;;;;3.22;2.38;;;;;;;12.91;43.72;93773.59;5028648;28;20155;-79
2022/09/19 08:15:15;;;;;;;3.92;2.80;;;;;;;13.17;43.60;93798.16;5027804;28;20028;-79
2022/09/19 08:17:58;;;;;;;3.80;2.38;;;;;;;13.04;43.23;93758.41;5026854;28;20024;-79
2022/09/19 08:20:25;;;;;;;2.53;1.60;;;;;;;13.31;42.91;93795.19;5026613;28;20524;-78
2022/09/19 08:22:58;;;;;;;2.20;1.73;;;;;;;13.30;41.62;93791.75;5025078;28;20021;-78
2022/09/19 08:25:27;;;;;;;2.47;1.63;;;;;;;13.26;42.16;93774.81;5030892;28;20040;-79
2022/09/19 08:27:55;;;;;;;2.75;1.55;;;;;;;13.17;41.84;93765.34;5057014;28;20083;-79
2022/09/19 08:30:21;;;;;;;3.05;1.67;;;;;;;13.09;42.01;93792.91;5026203;28;20131;-81
2022/09/19 08:32:49;;;;;;;5.25;2.72;;;;;;;13.16;42.35;93788.59;5028606;28;20094;-79
2022/09/19 08:35:15;;;;;;;4.53;1.52;;;;;;;13.26;42.67;93793.50;5032698;28;20499;-78
2022/09/19 08:37:41;;;;;;;4.60;2.30;;;;;;;13.22;42.55;93776.59;5029991;28;20091;-78
2022/09/19 08:40:18;;;;;;;2.33;1.35;;;;;;;13.43;41.99;93789.09;5028429;28;20040;-80
2022/09/19 08:42:56;;;;;;;3.30;1.80;;;;;;;13.61;41.63;93796.63;5057932;28;20082;-78
2022/09/19 08:45:40;;;;;;;2.92;1.55;;;;;;;13.53;41.54;93791.34;5028734;28;20024;-78
2022/09/19 08:48:18;;;;;;;2.33;1.40;;;;;;;13.18;42.28;93749.00;5037136;28;20052;-78
2022/09/19 08:50:53;;;;;;;4.82;1.58;;;;;;;13.36;41.38;93760.25;5035679;28;20017;-79
2022/09/19 08:53:25;;;;;;;2.65;1.90;;;;;;;13.51;41.58;93772.19;5027816;28;20029;-79
2022/09/19 08:55:54;;;;;;;5.00;2.88;;;;;;;13.60;42.43;93783.59;5030458;28;20809;-79
2022/09/19 08:58:23;;;;;;;4.53;2.00;;;;;;;13.70;41.91;93791.97;5028817;28;20626;-79
2022/09/19 09:00:50;;;;;;;4.63;2.25;;;;;;;13.59;41.69;93761.44;5028482;28;20024;-78
2022/09/19 09:03:24;;;;;;;2.83;1.85;;;;;;;13.69;41.82;93769.00;5027027;28;20159;-79
2022/09/19 09:06:30;;;;;;;3.53;2.45;;;;;;;13.93;41.21;93786.19;5030011;28;20068;-78
2022/09/19 09:09:22;;;;;;;2.78;2.03;;;;;;;13.93;40.95;93778.19;5057426;28;20052;-79
2022/09/19 09:11:58;;;;;;;2.80;2.05;;;;;;;13.87;40.94;93790.19;5013518;28;20056;-79
2022/09/19 09:14:26;;;;;;;2.20;2.00;;;;;;;13.86;41.65;93777.94;5057570;28;20021;-78
2022/09/19 09:17:18;;;;;;;3.15;2.08;;;;;;;13.96;41.05;93778.28;5027823;28;20059;-79
2022/09/19 09:19:43;;;;;;;5.53;3.28;;;;;;;13.86;40.61;93773.38;5026228;28;20245;-79
2022/09/19 09:22:08;;;;;;;3.47;2.47;;;;;;;13.90;41.45;93781.50;5027341;28;20918;-79
2022/09/19 09:24:38;;;;;;;8.38;3.35;;;;;;;13.79;40.91;93773.13;5026486;28;20039;-79
2022/09/19 09:27:12;;;;;;;6.20;3.05;;;;;;;13.58;41.12;93729.69;5026251;28;20041;-79
2022/09/19 09:29:43;;;;;;;5.97;3.00;;;;;;;13.92;41.14;93766.69;5026414;28;20139;-78
2022/09/19 09:32:14;;;;;;;4.40;2.80;;;;;;;13.87;41.34;93750.09;5026676;28;20028;-80
2022/09/19 09:34:44;;;;;;;5.80;3.67;;;;;;;13.92;41.54;93728.50;5028521;28;20017;-77
2022/09/19 09:37:21;;;;;;;7.35;3.17;;;;;;;14.05;41.06;93736.16;5027222;28;20116;-78
2022/09/19 09:40:00;;;;;;;5.28;3.00;;;;;;;14.10;40.19;93732.47;5029591;28;20037;-79
2022/09/19 09:42:37;;;;;;;8.82;3.28;;;;;;;14.08;40.62;93697.28;5027506;28;20033;-78
2022/09/19 09:45:35;;;;;;;7.38;3.38;;;;;;;14.36;40.69;93732.09;5027828;28;20223;-80
2022/09/19 09:48:15;;;;;;;3.83;2.60;;;;;;;14.41;40.26;93724.63;5025568;28;20041;-80
2022/09/19 09:51:05;;;;;;;4.45;2.33;;;;;;;14.49;39.18;93726.38;5023919;28;20020;-79
2022/09/19 09:53:57;;;;;;;4.55;2.17;;;;;;;14.63;38.90;93715.31;5021777;28;20429;-80
2022/09/19 09:56:38;;;;;;;4.47;2.42;;;;;;;14.67;39.32;93712.75;5026631;28;20029;-80
2022/09/19 10:05:47;;;;;;;4.07;2.03;;;;;;;14.68;38.24;93684.84;5032748;28;20278;-79
2022/09/19 10:08:28;;;;;;;5.20;2.33;;;;;;;14.59;39.55;93675.06;5032060;28;20415;-79
2022/09/19 10:11:22;;;;;;;6.13;2.35;;;;;;;14.90;37.94;93700.38;5027976;28;20037;-80
2022/09/19 10:14:01;;;;;;;3.90;2.08;;;;;;;14.96;38.62;93701.69;5020659;28;20116;-80
2022/09/19 10:16:32;;;;;;;2.00;1.60;;;;;;;15.04;36.91;93690.03;5032086;28;20025;-79
2022/09/19 10:19:36;;;;;;;2.70;1.80;;;;;;;15.25;37.74;93706.66;5032757;28;20025;-79
2022/09/19 10:22:03;;;;;;;2.22;1.80;;;;;;;15.28;37.82;93714.00;5014279;28;20124;-80
2022/09/19 10:24:51;;;;;;;4.50;3.50;;;;;;;15.32;37.49;93698.78;5031379;28;20230;-80
2022/09/19 10:27:23;;;;;;;4.20;1.90;;;;;;;15.42;37.71;93703.63;5031601;28;20041;-80
2022/09/19 10:29:58;;;;;;;4.95;2.03;;;;;;;15.39;40.21;93690.94;5028957;28;20033;-80
2022/09/19 10:32:34;;;;;;;2.25;1.45;;;;;;;15.45;38.42;93684.19;5030720;28;20053;-80
2022/09/19 10:35:00;;;;;;;3.30;1.55;;;;;;;15.27;40.36;93647.34;5033382;28;20036;-80
2022/09/19 10:37:29;;;;;;;6.60;1.55;;;;;;;15.30;36.57;93644.75;5029705;28;20029;-80
2022/09/19 10:40:04;;;;;;;3.63;1.25;;;;;;;15.51;36.82;93651.78;5037419;28;20040;-80
2022/09/19 10:42:33;;;;;;;3.45;1.33;;;;;;;15.83;35.56;93669.38;5032812;28;20095;-81
2022/09/19 10:45:00;;;;;;;4.22;1.38;;;;;;;15.79;34.88;93647.09;5025385;28;20030;-80
2022/09/19 10:47:28;;;;;;;3.63;1.40;;;;;;;15.75;35.06;93664.97;5030324;28;20030;-80
2022/09/19 10:50:00;;;;;;;3.28;1.50;;;;;;;15.79;34.44;93663.19;5030274;28;20456;-79
2022/09/19 10:52:30;;;;;;;4.05;1.70;;;;;;;15.83;35.35;93658.66;5030089;28;20029;-81
2022/09/19 10:54:59;;;;;;;3.60;1.33;;;;;;;15.68;36.16;93646.06;5028879;28;20028;-81
2022/09/19 10:57:40;;;;;;;1.77;1.15;;;;;;;15.86;36.33;93644.56;5030320;28;20052;-80
2022/09/19 11:00:26;;;;;;;1.98;1.50;;;;;;;15.99;35.52;93651.34;5058546;28;20021;-80
2022/09/19 11:03:02;;;;;;;1.35;1.13;;;;;;;16.09;34.53;93645.44;5031184;28;20166;-79
2022/09/19 11:05:30;;;;;;;3.35;1.60;;;;;;;15.75;34.99;93579.19;5030478;28;20501;-80
2022/09/19 11:08:00;;;;;;;1.88;1.40;;;;;;;16.22;35.26;93628.09;5029978;28;20114;-81
2022/09/19 11:10:38;;;;;;;2.58;1.30;;;;;;;16.41;35.00;93630.03;5024978;28;20144;-81
2022/09/19 11:13:12;;;;;;;2.25;1.55;;;;;;;16.19;34.03;93575.13;5053899;28;20440;-80
2022/09/19 11:16:08;;;;;;;3.63;1.45;;;;;;;16.21;33.64;93567.50;5029164;28;20397;-80
2022/09/19 11:18:56;;;;;;;2.67;1.20;;;;;;;16.54;34.43;93591.16;5029643;28;20564;-81
2022/09/19 11:21:44;;;;;;;4.97;1.83;;;;;;;16.76;33.61;93616.50;5029715;28;20081;-80
2022/09/19 11:24:37;;;;;;;1.90;1.17;;;;;;;16.83;32.19;93607.78;5030852;28;20040;-80
2022/09/19 11:27:30;;;;;;;2.78;1.38;;;;;;;16.88;33.17;93605.56;5034000;28;20022;-82
2022/09/19 11:30:14;;;;;;;2.03;1.10;;;;;;;16.69;33.11;93568.03;5019082;28;20036;-80
2022/09/19 11:32:43;;;;;;;2.83;1.33;;;;;;;16.94;33.15;93604.16;5058683;28;20075;-81
2022/09/19 11:35:31;;;;;;;4.53;1.20;;;;;;;17.00;32.71;93601.94;5029871;28;20500;-81
2022/09/19 11:38:14;;;;;;;2.15;1.45;;;;;;;17.09;33.17;93600.56;5057828;28;20444;-81
2022/09/19 11:40:48;;;;;;;1.52;1.02;;;;;;;17.13;34.65;93600.63;5055973;28;20041;-79
2022/09/19 11:43:44;;;;;;;1.73;1.10;;;;;;;17.24;34.10;93590.09;5025564;28;20037;-80
2022/09/19 11:46:20;;;;;;;2.45;1.50;;;;;;;17.38;33.46;93585.72;5023714;28;20033;-79
2022/09/19 11:48:54;;;;;;;2.17;1.27;;;;;;;17.48;32.95;93585.09;5030594;28;20105;-80
2022/09/19 11:51:49;;;;;;;1.50;1.05;;;;;;;17.55;31.56;93585.19;5031315;28;20037;-79
2022/09/19 11:54:38;;;;;;;2.17;1.27;;;;;;;17.66;31.68;93577.28;5041477;28;20048;-79
2022/09/19 11:57:21;;;;;;;2.30;0.98;;;;;;;17.68;31.08;93585.78;5027918;28;20052;-79
2022/09/19 12:00:20;;;;;;;2.42;1.27;;;;;;;17.71;30.87;93593.09;5057763;28;20153;-81
2022/09/19 12:03:04;;;;;;;1.98;1.10;;;;;;;17.71;31.95;93582.34;5016065;28;20041;-79
2022/09/19 12:05:52;;;;;;;4.78;1.50;;;;;;;17.69;30.56;93568.50;5036205;28;20108;-81
2022/09/19 12:08:32;;;;;;;1.30;1.13;;;;;;;17.81;31.18;93580.94;5027700;28;20032;-80
2022/09/19 12:11:08;;;;;;;4.47;1.65;;;;;;;17.76;32.99;93563.22;5023337;28;20028;-80